Ana Sayfa
METAR-TAF:

METAR-TAF

Havaalanları :

Culiacán, Meksika

Enlem: 24-49N, Boylam: 107-24W, yükseklik: 39 m

Güncel hava durumu gözlemi

Rapor saat 04:42 UTC de 2 saat ve 14 dakika önce yapıldı.
Sakin rüzgar
Sıcaklık 19°C
Nem 73%
Basınç 1018 hPa
Görüş mesafesi: 16.1 km
Açık gökyüzü

METAR: MMCL 290442Z 00000KT 10SM SKC 19/14 A3005

Saat: 23:56 (06:56 UTC)

Tahmin

Rapor saat 04:56 UTC de 2 saat ve 0 dakika önce yapıldı.
Ayın 29'si saat 06 UTC'den ayın 01'si saat 06 UTC'ye kadar geçerli Tahmin
Rüzgar batı/güneybatıdan 5 kt
Görüş mesafesi: 10 km
25000 ft yükseklikte parçalı bulutlu
Ayın 29'si saat 1600 UTC'den
Rüzgar batıdan 10 kt
Görüş mesafesi: 10 km
25000 ft yükseklikte parçalı bulutlu
Ayın 01'si saat 0200 UTC'den
Rüzgar batı/güneybatıdan 5 kt
Görüş mesafesi: 10 km
25000 ft yükseklikte parçalı bulutlu

TAF: MMCL 290456Z 2906/0106 25005KT P6SM SCT250 FM291600 26010KT P6SM SCT250 FM010200 24005KT P6SM SCT250

4.000'den fazla havaalanı için hava durumu gözlemleri ve tahminleri (METAR ve TAF raporları).

Kullanılabilir istasyonlar harita üzerinde sarı ve kırmızı noktalarla gösterilir.

İstasyonun adını görmek için fareyi noktanın üzerinde gezdirin.

Sonrasında hava gözlem ve tahminlerini görmek için tıklayın.

Haritayı değiştirmek için: yaklaştırmak için siyah artı işaretli yeşil düğmeye ve uzaklaştırmak için de eksi işaretli düğmeye hızla tıklayın; bitişik haritalar için yeşil okları kullanın.


METAR-TAF: